createdAt,value
2019-05-02T00:00:44.462Z,81.54
2019-05-02T00:01:44.427Z,81.54
2019-05-02T00:02:44.417Z,81.43
2019-05-02T00:03:44.403Z,81.74
2019-05-02T00:04:44.390Z,81.54
2019-05-02T00:05:44.409Z,82.05
2019-05-02T00:06:44.368Z,81.74
2019-05-02T00:07:44.361Z,81.54
2019-05-02T00:08:44.345Z,81.95
2019-05-02T00:09:48.495Z,81.54
2019-05-02T00:10:44.352Z,80.62
2019-05-02T00:11:44.316Z,80.92
2019-05-02T00:12:44.303Z,80.72
2019-05-02T00:13:44.336Z,80.55
2019-05-02T00:14:44.278Z,81.57
2019-05-02T00:15:44.296Z,81.68
2019-05-02T00:16:45.046Z,80.76
2019-05-02T00:17:44.244Z,81.51
2019-05-02T00:18:44.241Z,81.62
2019-05-02T00:19:45.201Z,81.78
2019-05-02T00:20:44.259Z,82.13
2019-05-02T00:21:44.198Z,83.36
2019-05-02T00:22:48.009Z,83.05
2019-05-02T00:23:45.177Z,83.70
2019-05-02T00:24:44.167Z,83.70
2019-05-02T00:25:47.412Z,84.32
2019-05-02T00:26:44.146Z,84.53
2019-05-02T00:27:44.131Z,84.32
2019-05-02T00:28:47.914Z,84.42
2019-05-02T00:29:45.110Z,84.42
2019-05-02T00:30:44.122Z,84.18
2019-05-02T00:31:46.817Z,84.42
2019-05-02T00:32:44.082Z,84.39
2019-05-02T00:33:44.064Z,83.98
2019-05-02T00:34:44.052Z,83.87
2019-05-02T00:35:46.248Z,83.67
2019-05-02T00:36:44.029Z,83.67
2019-05-02T00:37:44.018Z,83.67
2019-05-02T00:38:44.012Z,82.54
2019-05-02T00:39:45.133Z,82.47
2019-05-02T00:40:46.338Z,82.43
2019-05-02T00:41:43.974Z,81.96
2019-05-02T00:42:43.961Z,81.71
2019-05-02T00:43:43.991Z,81.51
2019-05-02T00:44:46.998Z,81.65
2019-05-02T00:45:43.958Z,81.34
2019-05-02T00:46:43.916Z,81.96
2019-05-02T00:47:47.689Z,82.47
2019-05-02T00:48:44.896Z,82.17
2019-05-02T00:49:43.902Z,83.19
2019-05-02T00:50:45.414Z,83.19
2019-05-02T00:51:43.958Z,83.19
2019-05-02T00:52:43.848Z,82.99
2019-05-02T00:53:44.466Z,82.78
2019-05-02T00:54:43.839Z,83.19
2019-05-02T00:55:43.827Z,82.27
2019-05-02T00:56:45.267Z,82.89
2019-05-02T00:57:43.797Z,83.29
2019-05-02T00:58:43.782Z,83.70
2019-05-02T00:59:43.770Z,83.19
2019-05-02T01:00:43.759Z,83.40
2019-05-02T01:01:43.770Z,83.70
2019-05-02T01:02:43.737Z,83.70
2019-05-02T01:03:47.153Z,83.91
2019-05-02T01:04:43.716Z,84.67
2019-05-02T01:05:43.703Z,84.26
2019-05-02T01:06:44.736Z,84.47
2019-05-02T01:07:44.682Z,84.67
2019-05-02T01:08:43.677Z,84.71
2019-05-02T01:09:46.837Z,85.70
2019-05-02T01:10:43.646Z,85.49
2019-05-02T01:11:43.658Z,85.70
2019-05-02T01:12:44.513Z,86.21
2019-05-02T01:13:43.613Z,86.00
2019-05-02T01:14:43.605Z,85.70
2019-05-02T01:15:44.089Z,86.11
2019-05-02T01:16:43.603Z,85.90
2019-05-02T01:17:43.567Z,84.98
2019-05-02T01:18:43.559Z,84.22
2019-05-02T01:19:47.342Z,84.26
2019-05-02T01:20:43.536Z,84.74
2019-05-02T01:21:43.546Z,84.42
2019-05-02T01:22:47.150Z,84.84
2019-05-02T01:23:43.503Z,84.26
2019-05-02T01:24:43.488Z,84.53
2019-05-02T01:25:47.242Z,84.74
2019-05-02T01:26:43.515Z,84.98
2019-05-02T01:27:43.456Z,84.67
2019-05-02T01:28:43.465Z,85.28
2019-05-02T01:29:43.441Z,85.80
2019-05-02T01:30:43.868Z,85.70
2019-05-02T01:31:43.442Z,86.83
2019-05-02T01:32:43.398Z,87.13
2019-05-02T01:33:43.625Z,87.24
2019-05-02T01:34:43.376Z,87.13
2019-05-02T01:35:43.365Z,87.04
2019-05-02T01:36:43.376Z,87.24
2019-05-02T01:37:43.346Z,88.37
2019-05-02T01:38:43.332Z,88.06
2019-05-02T01:39:44.088Z,88.06
2019-05-02T01:40:43.308Z,88.17
2019-05-02T01:41:43.333Z,88.27
2019-05-02T01:42:44.545Z,87.75
2019-05-02T01:43:43.279Z,87.96
2019-05-02T01:44:43.261Z,87.45
2019-05-02T01:45:46.646Z,87.55
2019-05-02T01:46:43.240Z,87.30
2019-05-02T01:47:43.252Z,86.89
2019-05-02T01:48:45.637Z,86.68
2019-05-02T01:49:43.209Z,87.10
2019-05-02T01:50:43.193Z,87.10
2019-05-02T01:51:47.444Z,87.20
2019-05-02T01:52:43.201Z,87.96
2019-05-02T01:53:43.163Z,88.17
2019-05-02T01:54:45.747Z,87.51
2019-05-02T01:55:43.139Z,88.06
2019-05-02T01:56:43.128Z,87.85
2019-05-02T01:57:44.761Z,87.61
2019-05-02T01:58:43.102Z,88.23
2019-05-02T01:59:43.092Z,87.92
2019-05-02T02:00:44.737Z,88.37
2019-05-02T02:01:43.070Z,88.74
2019-05-02T02:02:43.080Z,88.84
2019-05-02T02:03:45.570Z,88.78
2019-05-02T02:04:43.035Z,88.64
2019-05-02T02:05:43.024Z,88.98
2019-05-02T02:06:44.881Z,88.78
2019-05-02T02:07:43.024Z,88.89
2019-05-02T02:08:42.993Z,88.68
2019-05-02T02:09:44.040Z,88.51
2019-05-02T02:10:43.939Z,89.13
2019-05-02T02:11:42.956Z,89.34
2019-05-02T02:13:02.214Z,89.23
2019-05-02T02:13:42.936Z,89.48
2019-05-02T02:14:42.925Z,90.30
2019-05-02T02:15:42.915Z,89.89
2019-05-02T02:16:42.899Z,90.51
2019-05-02T02:17:46.857Z,90.72
2019-05-02T02:18:42.879Z,90.41
2019-05-02T02:19:42.868Z,90.45
2019-05-02T02:20:45.196Z,91.06
2019-05-02T02:21:43.206Z,90.96
2019-05-02T02:22:42.855Z,90.96
2019-05-02T02:23:45.075Z,92.10
2019-05-02T02:24:43.809Z,91.78
2019-05-02T02:25:42.798Z,92.10
2019-05-02T02:26:43.548Z,91.99
2019-05-02T02:27:42.800Z,91.89
2019-05-02T02:28:42.768Z,91.89
2019-05-02T02:29:44.120Z,91.93
2019-05-02T02:30:42.748Z,92.30
2019-05-02T02:31:46.886Z,92.82
2019-05-02T02:32:42.743Z,93.12
2019-05-02T02:33:47.920Z,92.71
2019-05-02T02:34:42.704Z,92.82
2019-05-02T02:35:49.461Z,92.61
2019-05-02T02:36:42.677Z,91.89
2019-05-02T02:37:52.055Z,91.78
2019-05-02T02:38:42.655Z,91.85
2019-05-02T02:39:48.567Z,91.58
2019-05-02T02:40:42.633Z,91.68
2019-05-02T02:41:45.313Z,91.85
2019-05-02T02:42:42.633Z,91.85
2019-05-02T02:43:42.609Z,91.85
2019-05-02T02:44:42.584Z,91.85
2019-05-02T02:45:42.580Z,90.81
2019-05-02T02:46:42.562Z,90.96
2019-05-02T02:47:42.576Z,90.45
2019-05-02T02:48:42.943Z,90.55
2019-05-02T02:49:42.531Z,91.17
2019-05-02T02:50:44.894Z,91.38
2019-05-02T02:51:42.512Z,91.78
2019-05-02T02:52:44.477Z,92.40
2019-05-02T02:53:42.484Z,92.50
2019-05-02T02:54:43.692Z,92.55
2019-05-02T02:55:42.461Z,91.83
2019-05-02T02:56:42.713Z,92.14
2019-05-02T02:57:42.439Z,92.24
2019-05-02T02:58:47.652Z,92.24
2019-05-02T02:59:43.420Z,92.55
2019-05-02T03:00:47.566Z,92.24
2019-05-02T03:01:42.400Z,92.76
2019-05-02T03:02:47.827Z,92.44
2019-05-02T03:03:42.404Z,92.65
2019-05-02T03:04:44.058Z,92.65
2019-05-02T03:05:42.347Z,92.65
2019-05-02T03:06:44.879Z,92.96
2019-05-02T03:07:42.330Z,92.96
2019-05-02T03:08:46.083Z,93.48
2019-05-02T03:09:42.305Z,93.58
2019-05-02T03:10:45.063Z,92.76
2019-05-02T03:11:42.281Z,93.01
2019-05-02T03:12:43.171Z,92.80
2019-05-02T03:13:52.417Z,93.01
2019-05-02T03:14:47.089Z,92.80
2019-05-02T03:15:42.237Z,92.80
2019-05-02T03:16:47.055Z,93.01
2019-05-02T03:17:42.219Z,93.21
2019-05-02T03:18:43.330Z,93.99
2019-05-02T03:19:42.191Z,94.13
2019-05-02T03:20:42.219Z,93.52
2019-05-02T03:21:42.169Z,93.99
2019-05-02T03:22:43.705Z,94.40
2019-05-02T03:23:42.170Z,94.09
2019-05-02T03:24:44.111Z,93.58
2019-05-02T03:25:50.550Z,93.37
2019-05-02T03:26:42.115Z,93.43
2019-05-02T03:27:42.104Z,93.06
2019-05-02T03:28:42.120Z,92.76
2019-05-02T03:29:44.504Z,92.65
2019-05-02T03:30:42.072Z,92.34
2019-05-02T03:31:42.064Z,92.20
2019-05-02T03:33:02.548Z,91.06
2019-05-02T03:33:54.763Z,90.80
2019-05-02T03:34:48.470Z,91.31
2019-05-02T03:35:48.662Z,91.99
2019-05-02T03:36:42.008Z,91.27
2019-05-02T03:37:44.658Z,91.17
2019-05-02T03:38:42.005Z,91.17
2019-05-02T03:39:42.037Z,91.47
2019-05-02T03:40:41.958Z,90.45
2019-05-02T03:41:41.946Z,90.45
2019-05-02T03:42:44.679Z,90.55
2019-05-02T03:43:42.049Z,90.34
2019-05-02T03:44:41.917Z,90.30
2019-05-02T03:45:43.119Z,89.52
2019-05-02T03:46:41.896Z,89.94
2019-05-02T03:47:43.533Z,89.42
2019-05-02T03:48:41.898Z,88.90
2019-05-02T03:49:48.560Z,89.11
2019-05-02T03:50:42.849Z,88.74
2019-05-02T03:51:41.834Z,89.25
2019-05-02T03:52:43.654Z,89.25
2019-05-02T03:53:41.836Z,89.87
2019-05-02T03:54:50.148Z,90.08
2019-05-02T03:55:42.792Z,89.36
2019-05-02T03:56:44.833Z,89.56
2019-05-02T03:57:42.436Z,89.67
2019-05-02T03:58:48.719Z,89.36
2019-05-02T03:59:42.006Z,89.05
2019-05-02T04:00:41.745Z,89.05
2019-05-02T04:01:43.154Z,89.46
2019-05-02T04:02:41.712Z,89.36
2019-05-02T04:03:43.795Z,89.56
2019-05-02T04:04:41.690Z,89.67
2019-05-02T04:05:42.322Z,89.97
2019-05-02T04:06:41.667Z,89.36
2019-05-02T04:07:42.315Z,89.36
2019-05-02T04:08:41.655Z,90.49
2019-05-02T04:09:42.526Z,90.08
2019-05-02T04:10:41.624Z,89.56
2019-05-02T04:11:41.613Z,90.39
2019-05-02T04:12:41.601Z,90.22
2019-05-02T04:13:41.592Z,90.22
2019-05-02T04:14:41.609Z,90.53
2019-05-02T04:15:41.569Z,90.53
2019-05-02T04:16:41.565Z,91.00
2019-05-02T04:17:41.547Z,91.00
2019-05-02T04:18:41.538Z,90.49
2019-05-02T04:19:41.549Z,90.69
2019-05-02T04:20:43.530Z,90.90
2019-05-02T04:21:41.507Z,90.80
2019-05-02T04:22:42.795Z,90.18
2019-05-02T04:23:41.491Z,89.77
2019-05-02T04:24:41.491Z,90.39
2019-05-02T04:25:42.272Z,91.00
2019-05-02T04:26:51.990Z,90.59
2019-05-02T04:27:41.439Z,90.59
2019-05-02T04:28:45.648Z,90.69
2019-05-02T04:29:41.439Z,90.80
2019-05-02T04:30:45.202Z,90.39
2019-05-02T04:31:41.394Z,89.62
2019-05-02T04:32:43.147Z,89.31
2019-05-02T04:33:41.370Z,89.52
2019-05-02T04:34:41.380Z,89.11
2019-05-02T04:35:41.344Z,89.52
2019-05-02T04:36:45.674Z,89.11
2019-05-02T04:37:43.738Z,89.01
2019-05-02T04:38:46.937Z,88.59
2019-05-02T04:39:41.329Z,88.39
2019-05-02T04:40:46.438Z,88.59
2019-05-02T04:41:42.610Z,89.01
2019-05-02T04:42:41.270Z,88.59
2019-05-02T04:43:51.452Z,88.70
2019-05-02T04:45:07.549Z,88.90
2019-05-02T04:45:55.342Z,88.29
2019-05-02T04:46:41.228Z,88.18
2019-05-02T04:47:42.519Z,88.14
2019-05-02T04:48:48.636Z,88.14
2019-05-02T04:49:41.215Z,87.52
2019-05-02T04:50:41.178Z,87.01
2019-05-02T04:51:41.168Z,86.80
2019-05-02T04:52:48.338Z,87.22
2019-05-02T04:53:45.019Z,87.52
2019-05-02T04:54:41.169Z,87.84
2019-05-02T04:55:41.126Z,87.73
2019-05-02T04:56:49.685Z,88.45
2019-05-02T04:57:47.066Z,88.14
2019-05-02T04:58:42.095Z,88.35
2019-05-02T04:59:41.108Z,87.52
2019-05-02T05:00:45.213Z,87.84
2019-05-02T05:01:49.121Z,88.24
2019-05-02T05:02:41.049Z,88.24
2019-05-02T05:03:41.038Z,86.91
2019-05-02T05:04:46.113Z,87.63
2019-05-02T05:05:42.021Z,87.63
2019-05-02T05:06:52.487Z,88.00
2019-05-02T05:07:46.100Z,87.79
2019-05-02T05:08:41.781Z,88.31
2019-05-02T05:09:50.060Z,88.31
2019-05-02T05:10:44.936Z,87.38
2019-05-02T05:11:40.948Z,87.90
2019-05-02T05:12:41.943Z,87.28
2019-05-02T05:13:40.924Z,88.20
2019-05-02T05:14:43.301Z,88.31
2019-05-02T05:15:48.472Z,87.90
2019-05-02T05:16:45.370Z,87.84
2019-05-02T05:17:40.880Z,87.79
2019-05-02T05:18:43.997Z,88.41
2019-05-02T05:19:40.880Z,87.59
2019-05-02T05:20:45.309Z,88.10
2019-05-02T05:21:41.835Z,88.31
2019-05-02T05:22:44.282Z,87.28
2019-05-02T05:23:40.809Z,88.51
2019-05-02T05:24:42.456Z,87.90
2019-05-02T05:25:40.787Z,88.41
2019-05-02T05:26:42.948Z,88.20
2019-05-02T05:27:40.767Z,88.82
2019-05-02T05:28:44.353Z,89.03
2019-05-02T05:29:40.767Z,88.20
2019-05-02T05:30:45.329Z,88.00
2019-05-02T05:31:40.723Z,87.90
2019-05-02T05:32:40.723Z,88.06
2019-05-02T05:33:40.724Z,88.10
2019-05-02T05:34:40.708Z,88.17
2019-05-02T05:35:43.177Z,87.96
2019-05-02T05:36:41.666Z,88.06
2019-05-02T05:37:43.295Z,87.65
2019-05-02T05:38:40.849Z,87.34
2019-05-02T05:39:43.147Z,87.96
2019-05-02T05:40:40.753Z,88.06
2019-05-02T05:41:42.764Z,88.27
2019-05-02T05:42:40.602Z,87.10
2019-05-02T05:43:44.809Z,87.24
2019-05-02T05:44:40.602Z,87.92
2019-05-02T05:45:50.705Z,88.02
2019-05-02T05:46:42.539Z,88.23
2019-05-02T05:47:40.540Z,88.12
2019-05-02T05:48:40.832Z,88.18
2019-05-02T05:49:40.543Z,88.02
2019-05-02T05:50:41.532Z,87.88
2019-05-02T05:51:40.495Z,87.10
2019-05-02T05:52:42.375Z,86.99
2019-05-02T05:53:40.473Z,86.79
2019-05-02T05:54:41.969Z,86.54
2019-05-02T05:55:40.456Z,86.85
2019-05-02T05:56:43.195Z,87.26
2019-05-02T05:57:40.426Z,86.54
2019-05-02T05:58:50.488Z,86.44
2019-05-02T05:59:40.440Z,86.65
2019-05-02T06:00:40.423Z,86.19
2019-05-02T06:01:40.391Z,85.93
2019-05-02T06:02:52.695Z,85.99
2019-05-02T06:03:44.570Z,85.89
2019-05-02T06:04:40.371Z,86.09
2019-05-02T06:05:41.008Z,86.09
2019-05-02T06:06:40.329Z,86.09
2019-05-02T06:07:44.015Z,85.23
2019-05-02T06:08:40.302Z,85.64
2019-05-02T06:09:40.317Z,85.74
2019-05-02T06:10:43.929Z,85.03
2019-05-02T06:11:40.296Z,85.33
2019-05-02T06:12:40.267Z,84.41
2019-05-02T06:13:42.984Z,85.03
2019-05-02T06:14:40.291Z,84.99
2019-05-02T06:15:40.565Z,84.06
2019-05-02T06:16:40.215Z,84.37
2019-05-02T06:17:40.203Z,84.47
2019-05-02T06:18:41.896Z,84.27
2019-05-02T06:19:40.178Z,84.37
2019-05-02T06:20:40.191Z,84.27
2019-05-02T06:21:45.091Z,84.23
2019-05-02T06:22:40.162Z,84.03
2019-05-02T06:23:41.594Z,83.00
2019-05-02T06:24:40.125Z,83.41
2019-05-02T06:25:42.483Z,83.41
2019-05-02T06:26:40.099Z,83.20
2019-05-02T06:27:40.089Z,83.10
2019-05-02T06:28:41.518Z,83.17
2019-05-02T06:29:40.071Z,83.06
2019-05-02T06:30:40.080Z,83.68
2019-05-02T06:31:43.176Z,83.47
2019-05-02T06:32:40.032Z,83.17
2019-05-02T06:33:40.021Z,82.76
2019-05-02T06:34:46.374Z,82.76
2019-05-02T06:35:40.034Z,82.65
2019-05-02T06:36:39.988Z,82.96
2019-05-02T06:37:40.811Z,83.06
2019-05-02T06:38:39.962Z,83.13
2019-05-02T06:39:39.952Z,82.96
2019-05-02T06:40:44.888Z,83.33
2019-05-02T06:41:39.932Z,83.64
2019-05-02T06:42:39.933Z,83.03
2019-05-02T06:43:41.141Z,83.44
2019-05-02T06:44:40.898Z,82.92
2019-05-02T06:45:39.910Z,83.03
2019-05-02T06:46:39.873Z,83.33
2019-05-02T06:47:41.815Z,82.21
2019-05-02T06:48:39.851Z,81.70
2019-05-02T06:49:39.840Z,81.29
2019-05-02T06:50:40.616Z,81.70
2019-05-02T06:51:39.817Z,81.70
2019-05-02T06:52:39.811Z,82.00
2019-05-02T06:53:41.445Z,82.51
2019-05-02T06:54:39.785Z,82.21
2019-05-02T06:55:39.773Z,82.17
2019-05-02T06:56:43.019Z,83.19
2019-05-02T06:57:39.751Z,83.33
2019-05-02T06:58:42.012Z,83.09
2019-05-02T06:59:39.730Z,82.89
2019-05-02T07:00:56.053Z,82.78
2019-05-02T07:01:39.737Z,83.19
2019-05-02T07:02:39.695Z,82.95
2019-05-02T07:03:41.445Z,82.27
2019-05-02T07:04:39.674Z,83.05
2019-05-02T07:05:39.658Z,83.15
2019-05-02T07:06:50.092Z,82.95
2019-05-02T07:07:39.647Z,83.25
2019-05-02T07:08:39.678Z,81.82
2019-05-02T07:09:41.230Z,81.68
2019-05-02T07:10:44.821Z,81.38
2019-05-02T07:11:40.994Z,81.27
2019-05-02T07:12:39.582Z,81.17
2019-05-02T07:13:41.989Z,80.35
2019-05-02T07:14:39.557Z,80.66
2019-05-02T07:15:40.567Z,80.42
2019-05-02T07:16:39.559Z,80.83
2019-05-02T07:17:39.525Z,80.32
2019-05-02T07:18:42.024Z,80.32
2019-05-02T07:19:39.515Z,80.32
2019-05-02T07:20:40.644Z,80.62
2019-05-02T07:21:39.505Z,80.21
2019-05-02T07:22:40.833Z,79.50
2019-05-02T07:23:39.455Z,78.88
2019-05-02T07:24:39.445Z,79.70
2019-05-02T07:25:43.922Z,79.50
2019-05-02T07:26:39.447Z,79.60
2019-05-02T07:27:39.513Z,79.50
2019-05-02T07:28:40.315Z,78.99
2019-05-02T07:29:39.391Z,79.50
2019-05-02T07:30:39.378Z,78.88
2019-05-02T07:31:42.897Z,79.39
2019-05-02T07:32:39.358Z,80.01
2019-05-02T07:33:39.343Z,79.60
2019-05-02T07:34:39.336Z,80.07
2019-05-02T07:35:39.323Z,78.88
2019-05-02T07:36:39.336Z,78.48
2019-05-02T07:37:39.300Z,78.99
2019-05-02T07:38:39.300Z,79.80
2019-05-02T07:39:40.966Z,78.64
2019-05-02T07:40:39.268Z,79.16
2019-05-02T07:41:39.284Z,79.66
2019-05-02T07:42:41.952Z,79.57
2019-05-02T07:43:39.236Z,79.16
2019-05-02T07:44:39.234Z,78.54
2019-05-02T07:45:40.196Z,78.13
2019-05-02T07:46:51.146Z,78.00
2019-05-02T07:47:40.331Z,77.48
2019-05-02T07:48:39.178Z,77.18
2019-05-02T07:49:39.167Z,76.87
2019-05-02T07:50:41.322Z,76.67
2019-05-02T07:51:39.147Z,76.26
2019-05-02T07:52:41.056Z,75.85
2019-05-02T07:53:39.121Z,76.26
2019-05-02T07:54:39.112Z,75.44
2019-05-02T07:55:40.843Z,75.85
2019-05-02T07:56:39.092Z,76.26
2019-05-02T07:57:39.118Z,76.06
2019-05-02T07:58:46.644Z,75.85
2019-05-02T07:59:39.057Z,74.73
2019-05-02T08:00:39.047Z,75.13
2019-05-02T08:01:39.038Z,75.04
2019-05-02T08:02:39.065Z,75.48
2019-05-02T08:03:39.016Z,75.24
2019-05-02T08:04:43.525Z,75.75
2019-05-02T08:05:39.988Z,75.07
2019-05-02T08:06:40.063Z,75.24
2019-05-02T08:07:39.007Z,75.34
2019-05-02T08:08:38.960Z,75.13
2019-05-02T08:09:39.357Z,75.75
2019-05-02T08:10:38.937Z,75.54
2019-05-02T08:11:38.958Z,75.04
2019-05-02T08:12:38.937Z,74.63
2019-05-02T08:13:38.909Z,73.60
2019-05-02T08:14:38.892Z,73.98
2019-05-02T08:15:38.881Z,73.67
2019-05-02T08:16:38.867Z,74.29
2019-05-02T08:17:38.876Z,74.29
2019-05-02T08:18:38.847Z,73.67
2019-05-02T08:19:41.705Z,73.88
2019-05-02T08:20:38.822Z,73.88
2019-05-02T08:21:38.811Z,71.73
2019-05-02T08:22:38.828Z,72.96
2019-05-02T08:23:38.794Z,71.73
2019-05-02T08:24:39.328Z,71.53
2019-05-02T08:25:41.470Z,71.84
2019-05-02T08:26:38.757Z,72.14
2019-05-02T08:27:38.767Z,72.96
2019-05-02T08:28:38.735Z,72.75
2019-05-02T08:29:38.721Z,72.82
2019-05-02T08:30:40.473Z,72.72
2019-05-02T08:31:38.710Z,73.13
2019-05-02T08:32:38.708Z,71.19
2019-05-02T08:33:38.675Z,69.56
2019-05-02T08:34:38.664Z,70.98
2019-05-02T08:35:38.653Z,71.29
2019-05-02T08:36:38.641Z,71.19
2019-05-02T08:37:40.977Z,71.29
2019-05-02T08:38:38.618Z,69.76
2019-05-02T08:39:38.628Z,70.48
2019-05-02T08:40:42.404Z,69.46
2019-05-02T08:41:38.597Z,68.40
2019-05-02T08:42:38.597Z,69.25
2019-05-02T08:43:40.183Z,69.53
2019-05-02T08:44:50.296Z,69.83
2019-05-02T08:45:39.606Z,69.42
2019-05-02T08:46:38.534Z,68.91
2019-05-02T08:47:38.544Z,68.51
2019-05-02T08:48:41.956Z,68.27
2019-05-02T08:49:38.503Z,68.51
2019-05-02T08:50:38.485Z,67.35
2019-05-02T08:51:38.474Z,66.54
2019-05-02T08:52:42.409Z,67.55
2019-05-02T08:53:38.482Z,67.96
2019-05-02T08:54:38.442Z,68.37
2019-05-02T08:55:41.364Z,66.44
2019-05-02T08:56:38.420Z,67.63
2019-05-02T08:57:38.442Z,67.43
2019-05-02T08:58:38.406Z,66.30
2019-05-02T08:59:40.822Z,66.30
2019-05-02T09:00:39.543Z,66.68
2019-05-02T09:01:38.362Z,66.27
2019-05-02T09:02:41.609Z,66.88
2019-05-02T09:03:54.852Z,66.99
2019-05-02T09:04:39.330Z,66.35
2019-05-02T09:05:45.522Z,65.43
2019-05-02T09:06:38.311Z,65.33
2019-05-02T09:07:39.362Z,64.89
2019-05-02T09:08:38.310Z,64.79
2019-05-02T09:09:38.272Z,64.55
2019-05-02T09:10:42.201Z,64.96
2019-05-02T09:11:38.523Z,63.84
2019-05-02T09:12:42.062Z,62.82
2019-05-02T09:13:38.255Z,64.04
2019-05-02T09:14:38.223Z,63.94
2019-05-02T09:15:40.396Z,63.94
2019-05-02T09:16:38.200Z,64.45
2019-05-02T09:17:39.077Z,64.55
2019-05-02T09:18:43.407Z,64.42
2019-05-02T09:19:38.165Z,64.04
2019-05-02T09:20:38.152Z,63.81
2019-05-02T09:21:38.152Z,64.35
2019-05-02T09:22:38.130Z,64.12
2019-05-02T09:23:41.129Z,63.91
2019-05-02T09:24:38.106Z,64.22
2019-05-02T09:25:38.099Z,64.32
2019-05-02T09:26:38.824Z,64.12
2019-05-02T09:27:38.072Z,63.91
2019-05-02T09:28:38.086Z,63.88
2019-05-02T09:29:44.499Z,64.12
2019-05-02T09:30:38.040Z,63.88
2019-05-02T09:31:42.210Z,63.88
2019-05-02T09:32:39.036Z,63.17
2019-05-02T09:33:45.163Z,64.18
2019-05-02T09:34:37.998Z,62.84
2019-05-02T09:35:37.983Z,61.93
2019-05-02T09:36:38.266Z,61.62
2019-05-02T09:37:37.969Z,61.52
2019-05-02T09:38:37.975Z,61.41
2019-05-02T09:39:37.945Z,61.93
2019-05-02T09:40:37.929Z,62.74
2019-05-02T09:41:37.916Z,62.63
2019-05-02T09:42:37.904Z,63.04
2019-05-02T09:43:39.222Z,62.40
2019-05-02T09:44:37.889Z,62.40
2019-05-02T09:45:41.021Z,62.20
2019-05-02T09:46:37.863Z,62.51
2019-05-02T09:47:53.188Z,61.99
2019-05-02T09:48:37.865Z,61.79
2019-05-02T09:49:41.754Z,62.07
2019-05-02T09:50:38.506Z,61.99
2019-05-02T09:51:37.806Z,61.69
2019-05-02T09:52:39.526Z,61.97
2019-05-02T09:53:37.806Z,61.36
2019-05-02T09:54:42.504Z,60.65
2019-05-02T09:55:42.309Z,60.55
2019-05-02T09:56:37.756Z,61.16
2019-05-02T09:57:37.740Z,60.85
2019-05-02T09:58:37.777Z,60.55
2019-05-02T09:59:37.718Z,60.82
2019-05-02T10:00:37.706Z,60.95
2019-05-02T10:01:37.696Z,60.14
2019-05-02T10:02:37.686Z,60.65
2019-05-02T10:03:37.693Z,60.24
2019-05-02T10:04:37.662Z,60.14
2019-05-02T10:05:37.661Z,60.52
2019-05-02T10:06:37.645Z,60.93
2019-05-02T10:07:37.626Z,60.69
2019-05-02T10:08:38.267Z,59.99
2019-05-02T10:09:37.615Z,59.68
2019-05-02T10:10:44.168Z,59.38
2019-05-02T10:11:38.583Z,59.75
2019-05-02T10:12:37.576Z,59.34
2019-05-02T10:13:37.583Z,58.64
2019-05-02T10:14:37.550Z,59.42
2019-05-02T10:15:37.542Z,58.81
2019-05-02T10:16:37.538Z,59.32
2019-05-02T10:17:42.222Z,58.61
2019-05-02T10:18:37.524Z,57.12
2019-05-02T10:19:41.179Z,57.62
2019-05-02T10:20:37.484Z,58.44
2019-05-02T10:21:37.476Z,58.23
2019-05-02T10:22:39.291Z,57.83
2019-05-02T10:23:37.447Z,58.84
2019-05-02T10:24:37.483Z,56.92
2019-05-02T10:25:38.921Z,57.62
2019-05-02T10:26:37.414Z,57.60
2019-05-02T10:27:38.483Z,57.50
2019-05-02T10:28:41.786Z,57.07
2019-05-02T10:29:37.407Z,56.53
2019-05-02T10:30:37.368Z,54.61
2019-05-02T10:31:37.922Z,53.38
2019-05-02T10:32:37.350Z,52.99
2019-05-02T10:33:37.746Z,53.27
2019-05-02T10:34:37.346Z,54.49
2019-05-02T10:35:40.598Z,53.14
2019-05-02T10:36:37.305Z,52.76
2019-05-02T10:37:38.292Z,53.85
2019-05-02T10:38:37.291Z,54.43
2019-05-02T10:39:37.964Z,52.61
2019-05-02T10:40:37.259Z,53.52
2019-05-02T10:41:39.379Z,53.93
2019-05-02T10:42:37.244Z,53.22
2019-05-02T10:43:37.222Z,52.59
2019-05-02T10:44:37.241Z,52.36
2019-05-02T10:45:37.203Z,51.45
2019-05-02T10:46:37.868Z,51.56
2019-05-02T10:47:37.179Z,52.14
2019-05-02T10:48:37.168Z,52.74
2019-05-02T10:49:37.182Z,52.24
2019-05-02T10:50:37.145Z,52.01
2019-05-02T10:51:41.715Z,51.00
2019-05-02T10:52:37.129Z,51.10
2019-05-02T10:53:37.119Z,52.42
2019-05-02T10:54:37.498Z,51.91
2019-05-02T10:55:37.093Z,51.79
2019-05-02T10:56:37.081Z,51.46
2019-05-02T10:57:37.070Z,50.65
2019-05-02T10:58:37.063Z,48.84
2019-05-02T10:59:37.072Z,49.82
2019-05-02T11:00:37.039Z,50.02
2019-05-02T11:01:37.027Z,48.79
2019-05-02T11:02:37.017Z,49.80
2019-05-02T11:03:38.046Z,50.31
2019-05-02T11:04:37.021Z,49.19
2019-05-02T11:05:37.444Z,49.27
2019-05-02T11:06:41.538Z,48.67
2019-05-02T11:07:36.967Z,46.66
2019-05-02T11:08:41.364Z,47.86
2019-05-02T11:09:37.965Z,47.19
2019-05-02T11:10:36.929Z,47.39
2019-05-02T11:11:36.917Z,48.77
2019-05-02T11:12:46.082Z,47.26
2019-05-02T11:13:36.897Z,47.77
2019-05-02T11:14:36.917Z,47.16
2019-05-02T11:15:36.877Z,48.37
2019-05-02T11:16:36.861Z,47.34
2019-05-02T11:17:36.852Z,47.44
2019-05-02T11:18:42.385Z,47.54
2019-05-02T11:19:36.869Z,46.94
2019-05-02T11:20:36.820Z,46.01
2019-05-02T11:21:36.840Z,45.51
2019-05-02T11:22:36.802Z,45.69
2019-05-02T11:23:36.818Z,45.91
2019-05-02T11:24:36.771Z,45.69
2019-05-02T11:25:36.785Z,45.89
2019-05-02T11:26:36.774Z,44.68
2019-05-02T11:27:36.743Z,42.97
2019-05-02T11:28:36.730Z,44.79
2019-05-02T11:29:36.743Z,45.89
2019-05-02T11:30:36.751Z,45.26
2019-05-02T11:31:36.695Z,45.59
2019-05-02T11:32:36.685Z,45.47
2019-05-02T11:33:36.675Z,45.37
2019-05-02T11:34:36.664Z,44.84
2019-05-02T11:35:36.679Z,44.72
2019-05-02T11:36:36.685Z,45.53
2019-05-02T11:37:36.634Z,44.70
2019-05-02T11:38:37.214Z,43.40
2019-05-02T11:39:44.699Z,43.19
2019-05-02T11:40:36.624Z,42.80
2019-05-02T11:41:36.588Z,42.91
2019-05-02T11:42:36.579Z,44.58
2019-05-02T11:43:37.160Z,43.98
2019-05-02T11:44:36.555Z,42.25
2019-05-02T11:45:36.571Z,41.24
2019-05-02T11:46:37.483Z,40.89
2019-05-02T11:47:36.534Z,40.80
2019-05-02T11:48:36.513Z,40.37
2019-05-02T11:49:36.503Z,39.56
2019-05-02T11:50:36.519Z,38.64
2019-05-02T11:51:36.483Z,39.04
2019-05-02T11:52:37.541Z,38.82
2019-05-02T11:53:36.469Z,38.09
2019-05-02T11:54:39.309Z,37.37
2019-05-02T11:55:36.469Z,38.43
2019-05-02T11:56:42.967Z,34.23
2019-05-02T11:57:37.425Z,35.69
2019-05-02T11:58:42.400Z,34.56
2019-05-02T11:59:36.406Z,33.62
2019-05-02T12:00:39.755Z,32.89
2019-05-02T12:01:39.763Z,32.48
2019-05-02T12:02:36.371Z,31.26
2019-05-02T12:03:37.075Z,31.74
2019-05-02T12:04:36.357Z,30.26
2019-05-02T12:05:39.159Z,31.56
2019-05-02T12:06:36.335Z,32.27
2019-05-02T12:07:36.326Z,32.70
2019-05-02T12:08:39.421Z,32.91
2019-05-02T12:09:36.306Z,33.21
2019-05-02T12:10:36.745Z,32.91
2019-05-02T12:11:36.282Z,33.52
2019-05-02T12:12:36.476Z,31.75
2019-05-02T12:13:36.263Z,33.25
2019-05-02T12:14:36.603Z,34.66
2019-05-02T12:15:36.264Z,34.20
2019-05-02T12:16:36.231Z,37.10
2019-05-02T12:17:36.219Z,37.99
2019-05-02T12:18:36.214Z,36.88
2019-05-02T12:19:36.199Z,37.08
2019-05-02T12:20:36.855Z,36.68
2019-05-02T12:21:39.052Z,36.90
2019-05-02T12:22:36.172Z,34.43
2019-05-02T12:23:36.489Z,36.46
2019-05-02T12:24:40.348Z,37.55
2019-05-02T12:25:36.167Z,37.37
2019-05-02T12:26:36.127Z,36.29
2019-05-02T12:27:36.120Z,36.59
2019-05-02T12:28:36.109Z,36.99
2019-05-02T12:29:36.096Z,37.60
2019-05-02T12:30:37.811Z,38.00
2019-05-02T12:31:36.078Z,38.02
2019-05-02T12:32:36.065Z,38.24
2019-05-02T12:33:36.056Z,38.66
2019-05-02T12:34:36.046Z,38.48
2019-05-02T12:35:36.059Z,39.50
2019-05-02T12:36:36.024Z,40.37
2019-05-02T12:37:36.012Z,39.89
2019-05-02T12:38:36.005Z,39.31
2019-05-02T12:39:35.994Z,39.43
2019-05-02T12:40:36.010Z,40.13
2019-05-02T12:41:35.970Z,40.55
2019-05-02T12:42:36.045Z,41.47
2019-05-02T12:43:35.952Z,42.47
2019-05-02T12:44:35.936Z,41.89
2019-05-02T12:45:35.952Z,41.29
2019-05-02T12:46:35.927Z,40.99
2019-05-02T12:47:35.904Z,42.91
2019-05-02T12:48:35.892Z,43.50
2019-05-02T12:49:35.882Z,42.11
2019-05-02T12:50:35.904Z,41.21
2019-05-02T12:51:35.864Z,40.59
2019-05-02T12:52:35.848Z,41.89